createdAt,value
2018-04-10T00:00:15.895Z,19.90
2018-04-10T00:02:43.492Z,27.87
2018-04-10T00:05:11.156Z,28.47
2018-04-10T00:07:38.753Z,13.43
2018-04-10T00:10:06.381Z,21.90
2018-04-10T00:12:34.008Z,21.40
2018-04-10T00:15:01.593Z,16.03
2018-04-10T00:17:29.192Z,24.20
2018-04-10T00:19:56.812Z,24.97
2018-04-10T00:22:24.406Z,15.33
2018-04-10T00:24:52.008Z,16.90
2018-04-10T00:27:19.669Z,12.97
2018-04-10T00:29:47.276Z,22.63
2018-04-10T00:32:14.873Z,18.97
2018-04-10T00:34:42.544Z,17.07
2018-04-10T00:37:10.137Z,16.07
2018-04-10T00:39:37.742Z,23.80
2018-04-10T00:42:05.363Z,20.93
2018-04-10T00:44:32.963Z,12.13
2018-04-10T00:47:00.631Z,18.77
2018-04-10T00:49:28.311Z,20.03
2018-04-10T00:51:55.889Z,11.30
2018-04-10T00:54:23.512Z,12.13
2018-04-10T00:56:51.175Z,16.47
2018-04-10T00:59:18.779Z,15.80
2018-04-10T01:01:46.419Z,14.50
2018-04-10T01:04:14.053Z,15.03
2018-04-10T01:06:41.633Z,24.30
2018-04-10T01:09:09.240Z,17.40
2018-04-10T01:11:36.874Z,17.50
2018-04-10T01:14:04.495Z,16.80
2018-04-10T01:16:32.090Z,16.70
2018-04-10T01:18:59.717Z,19.93
2018-04-10T01:21:27.318Z,12.77
2018-04-10T01:23:54.906Z,15.87
2018-04-10T01:26:22.533Z,21.60
2018-04-10T01:28:50.127Z,25.03
2018-04-10T01:31:17.736Z,18.87
2018-04-10T01:33:45.353Z,19.77
2018-04-10T01:36:12.955Z,12.50
2018-04-10T01:38:40.537Z,9.20
2018-04-10T01:41:08.146Z,7.73
2018-04-10T01:43:35.754Z,12.27
2018-04-10T01:46:03.345Z,9.97
2018-04-10T01:48:30.993Z,12.73
2018-04-10T01:50:58.641Z,10.97
2018-04-10T01:53:26.238Z,16.80
2018-04-10T01:55:53.880Z,17.33
2018-04-10T01:58:21.502Z,16.63
2018-04-10T02:00:49.112Z,28.27
2018-04-10T02:03:16.738Z,20.23
2018-04-10T02:05:44.310Z,17.73
2018-04-10T02:08:11.889Z,20.83
2018-04-10T02:10:57.035Z,21.23
2018-04-10T02:13:24.623Z,12.77
2018-04-10T02:15:52.235Z,11.53
2018-04-10T02:18:19.896Z,13.57
2018-04-10T02:20:47.484Z,17.57
2018-04-10T02:23:15.088Z,13.73
2018-04-10T02:25:42.737Z,14.80
2018-04-10T02:28:10.335Z,14.47
2018-04-10T02:30:37.929Z,15.37
2018-04-10T02:33:05.648Z,20.57
2018-04-10T02:35:33.309Z,16.23
2018-04-10T02:38:00.918Z,20.50
2018-04-10T02:40:28.538Z,10.30
2018-04-10T02:42:56.132Z,16.20
2018-04-10T02:45:23.714Z,13.83
2018-04-10T02:47:51.369Z,18.50
2018-04-10T02:50:18.976Z,15.30
2018-04-10T02:52:46.572Z,14.93
2018-04-10T02:55:14.192Z,14.67
2018-04-10T02:57:41.789Z,18.17
2018-04-10T03:00:09.383Z,16.20
2018-04-10T03:02:36.996Z,17.73
2018-04-10T03:05:04.582Z,17.13
2018-04-10T03:07:32.172Z,13.20
2018-04-10T03:09:59.816Z,35.77
2018-04-10T03:12:27.418Z,18.30
2018-04-10T03:14:55.031Z,38.73
2018-04-10T03:17:22.716Z,21.97
2018-04-10T03:19:50.760Z,12.13
2018-04-10T03:22:18.354Z,18.43
2018-04-10T03:24:45.995Z,13.10
2018-04-10T03:27:13.628Z,16.33
2018-04-10T03:29:41.237Z,21.07
2018-04-10T03:32:08.874Z,15.27
2018-04-10T03:34:36.479Z,10.60
2018-04-10T03:37:04.068Z,13.50
2018-04-10T03:39:31.717Z,26.70
2018-04-10T03:41:59.309Z,16.70
2018-04-10T03:44:26.906Z,13.47
2018-04-10T03:46:54.530Z,24.53
2018-04-10T03:49:22.112Z,13.50
2018-04-10T03:51:49.699Z,11.80
2018-04-10T03:54:17.313Z,20.93
2018-04-10T03:56:44.948Z,17.47
2018-04-10T03:59:12.530Z,12.90
2018-04-10T04:01:40.144Z,26.50
2018-04-10T04:04:07.732Z,13.70
2018-04-10T04:06:35.343Z,13.03
2018-04-10T04:09:02.952Z,9.90
2018-04-10T04:11:30.549Z,14.40
2018-04-10T04:13:58.169Z,9.17
2018-04-10T04:19:41.575Z,19.03
2018-04-10T04:22:20.860Z,8.53
2018-04-10T04:24:48.484Z,18.23
2018-04-10T04:27:16.079Z,57.63
2018-04-10T04:29:43.668Z,13.87
2018-04-10T04:32:11.298Z,17.13
2018-04-10T04:34:38.900Z,15.50
2018-04-10T04:37:06.471Z,35.03
2018-04-10T04:39:34.101Z,25.33
2018-04-10T04:42:01.725Z,14.47
2018-04-10T04:44:29.313Z,26.80
2018-04-10T04:46:56.946Z,27.53
2018-04-10T04:49:24.648Z,26.63
2018-04-10T04:51:52.386Z,20.33
2018-04-10T04:54:20.176Z,30.60
2018-04-10T04:56:47.894Z,19.40
2018-04-10T04:59:15.509Z,27.90
2018-04-10T05:01:43.354Z,35.27
2018-04-10T05:04:11.045Z,29.63
2018-04-10T05:06:38.700Z,28.53
2018-04-10T05:09:06.355Z,34.20
2018-04-10T05:11:34.025Z,53.27
2018-04-10T05:14:01.693Z,36.37
2018-04-10T05:16:29.355Z,24.73
2018-04-10T05:18:57.019Z,33.50
2018-04-10T05:21:24.864Z,48.43
2018-04-10T05:23:52.535Z,29.47
2018-04-10T05:26:20.142Z,29.90
2018-04-10T05:28:47.857Z,33.10
2018-04-10T05:31:15.524Z,21.90
2018-04-10T05:33:43.191Z,19.37
2018-04-10T05:36:10.847Z,40.53
2018-04-10T05:38:38.511Z,33.33
2018-04-10T05:41:06.129Z,27.27
2018-04-10T05:43:33.834Z,24.60
2018-04-10T05:46:01.501Z,18.93
2018-04-10T05:48:29.089Z,22.87
2018-04-10T05:50:56.831Z,35.37
2018-04-10T05:53:24.492Z,16.13
2018-04-10T05:55:52.223Z,13.67
2018-04-10T05:58:20.072Z,13.13
2018-04-10T06:00:48.062Z,22.80
2018-04-10T06:03:15.803Z,21.40
2018-04-10T06:05:43.626Z,17.97
2018-04-10T06:08:11.686Z,22.23
2018-04-10T06:10:39.354Z,30.53
2018-04-10T06:13:06.937Z,23.07
2018-04-10T06:15:34.683Z,14.37
2018-04-10T06:18:02.342Z,14.23
2018-04-10T06:20:29.996Z,20.87
2018-04-10T06:22:57.876Z,14.87
2018-04-10T06:25:25.538Z,27.40
2018-04-10T06:27:53.232Z,20.73
2018-04-10T06:30:21.067Z,18.23
2018-04-10T06:32:48.914Z,38.33
2018-04-10T06:35:16.497Z,26.63
2018-04-10T06:37:44.131Z,30.20
2018-04-10T06:40:11.708Z,28.17
2018-04-10T06:42:39.379Z,45.77
2018-04-10T06:45:07.248Z,29.80
2018-04-10T06:47:35.118Z,22.87
2018-04-10T06:50:02.775Z,34.17
2018-04-10T06:52:30.441Z,26.53
2018-04-10T06:54:58.101Z,22.83
2018-04-10T06:57:25.688Z,17.33
2018-04-10T06:59:53.330Z,22.67
2018-04-10T07:02:20.920Z,19.00
2018-04-10T07:04:48.536Z,13.63
2018-04-10T07:07:16.188Z,26.60
2018-04-10T07:09:43.767Z,15.53
2018-04-10T07:12:11.350Z,19.17
2018-04-10T07:14:39.108Z,17.33
2018-04-10T07:17:06.689Z,16.30
2018-04-10T07:19:34.272Z,19.73
2018-04-10T07:22:01.977Z,37.50
2018-04-10T07:24:29.570Z,40.47
2018-04-10T07:26:57.167Z,27.60
2018-04-10T07:29:24.808Z,25.60
2018-04-10T07:31:52.391Z,30.73
2018-04-10T07:34:19.980Z,27.10
2018-04-10T07:36:47.607Z,23.67
2018-04-10T07:39:15.199Z,44.03
2018-04-10T07:41:42.796Z,31.03
2018-04-10T07:44:10.429Z,42.87
2018-04-10T07:46:38.032Z,86.97
2018-04-10T07:49:05.629Z,49.77
2018-04-10T07:51:33.313Z,112.87
2018-04-10T07:54:00.899Z,38.43
2018-04-10T07:56:28.484Z,48.30
2018-04-10T07:58:56.113Z,39.23
2018-04-10T08:01:23.705Z,37.60
2018-04-10T08:03:51.416Z,33.30
2018-04-10T08:06:19.051Z,36.33
2018-04-10T08:08:46.651Z,18.77
2018-04-10T08:11:14.252Z,14.30
2018-04-10T08:13:41.962Z,16.10
2018-04-10T08:16:09.713Z,16.90
2018-04-10T08:18:37.311Z,33.97
2018-04-10T08:21:04.935Z,22.60
2018-04-10T08:23:32.577Z,22.17
2018-04-10T08:26:00.161Z,24.10
2018-04-10T08:28:27.810Z,9.13
2018-04-10T08:30:55.495Z,25.80
2018-04-10T08:33:23.080Z,21.30
2018-04-10T08:35:50.697Z,13.93
2018-04-10T08:38:18.290Z,17.87
2018-04-10T08:40:45.883Z,13.80
2018-04-10T08:43:13.585Z,24.83
2018-04-10T08:45:41.176Z,6.70
2018-04-10T08:48:08.778Z,30.53
2018-04-10T08:50:36.464Z,36.60
2018-04-10T08:53:04.056Z,21.50
2018-04-10T08:55:31.641Z,15.83
2018-04-10T08:57:59.245Z,9.43
2018-04-10T09:00:26.828Z,13.83
2018-04-10T09:02:54.464Z,11.17
2018-04-10T09:05:22.096Z,15.97
2018-04-10T09:07:49.681Z,22.03
2018-04-10T09:10:17.258Z,7.43
2018-04-10T09:12:44.879Z,16.00
2018-04-10T09:15:12.469Z,9.30
2018-04-10T09:17:40.056Z,11.13
2018-04-10T09:20:07.676Z,6.70
2018-04-10T09:22:35.267Z,8.43
2018-04-10T09:25:02.857Z,9.27
2018-04-10T09:27:30.484Z,12.30
2018-04-10T09:29:58.078Z,10.20
2018-04-10T09:32:25.685Z,6.47
2018-04-10T09:34:53.295Z,4.80
2018-04-10T09:37:20.874Z,6.73
2018-04-10T09:39:48.474Z,10.70
2018-04-10T09:42:16.081Z,7.00
2018-04-10T09:44:43.661Z,9.03
2018-04-10T09:47:11.243Z,5.40
2018-04-10T09:49:38.858Z,7.12
2018-04-10T09:52:06.436Z,6.10
2018-04-10T09:54:34.009Z,3.90
2018-04-10T09:57:01.631Z,7.12
2018-04-10T09:59:29.187Z,3.70
2018-04-10T10:01:56.750Z,6.15
2018-04-10T10:04:24.386Z,8.15
2018-04-10T10:06:52.072Z,9.77
2018-04-10T10:09:19.672Z,10.15
2018-04-10T10:11:47.349Z,13.68
2018-04-10T10:14:14.936Z,13.07
2018-04-10T10:16:42.520Z,4.82
2018-04-10T10:19:10.139Z,4.07
2018-04-10T10:21:37.717Z,8.48
2018-04-10T10:24:05.289Z,7.80
2018-04-10T10:26:32.895Z,8.95
2018-04-10T10:29:00.463Z,7.12
2018-04-10T10:31:28.032Z,6.87
2018-04-10T10:33:55.646Z,11.63
2018-04-10T10:36:23.241Z,6.45
2018-04-10T10:38:50.813Z,10.35
2018-04-10T10:41:18.410Z,8.20
2018-04-10T10:43:45.982Z,5.78
2018-04-10T10:46:13.569Z,9.07
2018-04-10T10:48:41.188Z,6.20
2018-04-10T10:51:08.776Z,7.75
2018-04-10T10:53:36.390Z,9.05
2018-04-10T10:56:04.022Z,8.18
2018-04-10T10:58:31.614Z,4.45
2018-04-10T11:00:59.218Z,8.90
2018-04-10T11:03:26.901Z,2.80
2018-04-10T11:05:54.554Z,4.22
2018-04-10T11:08:22.136Z,9.30
2018-04-10T11:10:50.070Z,10.55
2018-04-10T11:13:17.667Z,13.57
2018-04-10T11:15:45.257Z,7.53
2018-04-10T11:18:12.895Z,6.27
2018-04-10T11:20:40.480Z,11.33
2018-04-10T11:23:08.062Z,7.55
2018-04-10T11:25:35.680Z,6.18
2018-04-10T11:28:03.265Z,4.25
2018-04-10T11:30:30.851Z,5.40
2018-04-10T11:32:58.496Z,13.85
2018-04-10T11:35:26.071Z,9.85
2018-04-10T11:37:53.689Z,7.27
2018-04-10T11:40:21.316Z,8.32
2018-04-10T11:42:48.900Z,4.93
2018-04-10T11:45:16.524Z,6.45
2018-04-10T11:47:44.144Z,4.32
2018-04-10T11:50:11.711Z,5.43
2018-04-10T11:52:39.280Z,5.60
2018-04-10T11:55:06.885Z,5.57
2018-04-10T11:57:34.467Z,6.23
2018-04-10T12:00:02.079Z,5.43
2018-04-10T12:02:29.703Z,7.82
2018-04-10T12:04:57.285Z,4.68
2018-04-10T12:07:24.887Z,12.70
2018-04-10T12:09:52.491Z,5.03
2018-04-10T12:12:20.080Z,6.10
2018-04-10T12:14:47.658Z,12.13
2018-04-10T12:17:15.260Z,10.05
2018-04-10T12:19:42.849Z,5.05
2018-04-10T12:22:11.325Z,17.25
2018-04-10T12:24:41.125Z,3.85
2018-04-10T12:27:08.820Z,5.78
2018-04-10T12:29:36.397Z,22.40
2018-04-10T12:32:04.041Z,4.25
2018-04-10T12:34:31.652Z,4.75
2018-04-10T12:36:59.252Z,4.80
2018-04-10T12:39:26.867Z,9.90
2018-04-10T12:41:54.448Z,4.10
2018-04-10T12:44:22.030Z,8.75
2018-04-10T12:46:49.652Z,12.90
2018-04-10T12:49:17.373Z,11.60
2018-04-10T12:51:44.965Z,8.60
2018-04-10T12:54:12.591Z,9.57
2018-04-10T12:56:40.193Z,6.50
2018-04-10T12:59:07.783Z,4.27
2018-04-10T13:01:35.400Z,6.22
2018-04-10T13:04:02.979Z,6.32
2018-04-10T13:06:30.591Z,5.80
2018-04-10T13:08:58.204Z,9.25
2018-04-10T13:11:25.911Z,12.03
2018-04-10T13:13:53.591Z,6.37
2018-04-10T13:16:21.157Z,9.80
2018-04-10T13:18:48.744Z,3.97
2018-04-10T13:21:16.351Z,8.60
2018-04-10T13:23:43.985Z,9.13
2018-04-10T13:26:11.587Z,10.87
2018-04-10T13:28:39.184Z,11.40
2018-04-10T13:31:07.069Z,6.43
2018-04-10T13:33:34.868Z,12.90
2018-04-10T13:36:02.444Z,11.77
2018-04-10T13:38:30.088Z,8.70
2018-04-10T13:40:57.671Z,16.83
2018-04-10T13:43:25.297Z,7.53
2018-04-10T13:45:52.884Z,18.03
2018-04-10T13:48:20.462Z,7.30
2018-04-10T13:50:48.101Z,11.80
2018-04-10T13:53:15.723Z,11.43
2018-04-10T13:55:43.292Z,13.73
2018-04-10T13:58:10.867Z,12.77
2018-04-10T14:00:38.534Z,7.83
2018-04-10T14:03:06.108Z,11.40
2018-04-10T14:05:33.670Z,13.77
2018-04-10T14:08:01.312Z,16.23
2018-04-10T14:10:28.891Z,14.93
2018-04-10T14:12:56.464Z,7.70
2018-04-10T14:15:24.100Z,12.00
2018-04-10T14:17:51.670Z,7.57
2018-04-10T14:20:19.240Z,8.83
2018-04-10T14:22:46.839Z,21.90
2018-04-10T14:25:14.447Z,9.30
2018-04-10T14:27:42.217Z,13.17
2018-04-10T14:30:09.840Z,10.63
2018-04-10T14:32:37.424Z,5.27
2018-04-10T14:35:05.046Z,12.67
2018-04-10T14:37:32.666Z,14.87
2018-04-10T14:40:00.247Z,6.93
2018-04-10T14:42:27.828Z,9.90
2018-04-10T14:44:55.475Z,16.03
2018-04-10T14:47:23.046Z,11.10
2018-04-10T14:49:50.620Z,5.47
2018-04-10T14:52:18.285Z,3.27
2018-04-10T14:54:45.849Z,3.03
2018-04-10T14:57:13.416Z,6.73
2018-04-10T14:59:41.111Z,5.40
2018-04-10T15:02:08.769Z,9.70
2018-04-10T15:04:36.437Z,3.63
2018-04-10T15:07:04.064Z,7.07
2018-04-10T15:09:31.645Z,14.27
2018-04-10T15:11:59.211Z,9.63
2018-04-10T15:14:27.046Z,10.20
2018-04-10T15:16:54.779Z,3.93
2018-04-10T15:19:22.401Z,10.33
2018-04-10T15:21:49.998Z,7.17
2018-04-10T15:24:17.719Z,13.27
2018-04-10T15:26:45.282Z,6.97
2018-04-10T15:29:12.900Z,14.03
2018-04-10T15:31:40.475Z,8.33
2018-04-10T15:34:08.040Z,8.43
2018-04-10T15:36:35.830Z,9.00
2018-04-10T15:39:03.690Z,13.20
2018-04-10T15:41:32.926Z,7.97
2018-04-10T15:44:02.163Z,13.97
2018-04-10T15:46:32.487Z,11.83
2018-04-10T15:49:02.626Z,10.67
2018-04-10T15:51:32.961Z,8.17
2018-04-10T15:54:03.517Z,21.60
2018-04-10T15:56:34.013Z,12.93
2018-04-10T15:59:04.507Z,14.17
2018-04-10T16:01:34.532Z,13.00
2018-04-10T16:04:04.770Z,13.30
2018-04-10T16:06:33.624Z,17.43
2018-04-10T16:09:03.191Z,53.40
2018-04-10T16:11:32.434Z,41.83
2018-04-10T16:14:02.139Z,55.47
2018-04-10T16:16:31.408Z,17.17
2018-04-10T16:19:00.684Z,22.77
2018-04-10T16:21:28.462Z,15.53
2018-04-10T16:23:56.238Z,15.73
2018-04-10T16:26:23.832Z,30.73
2018-04-10T16:28:51.461Z,41.93
2018-04-10T16:31:19.068Z,26.63
2018-04-10T16:33:46.680Z,29.70
2018-04-10T16:36:14.327Z,28.80
2018-04-10T16:38:41.917Z,22.10
2018-04-10T16:41:09.672Z,14.93
2018-04-10T16:43:37.307Z,25.80
2018-04-10T16:46:04.995Z,20.20
2018-04-10T16:48:32.639Z,23.17
2018-04-10T16:51:00.249Z,11.77
2018-04-10T16:53:27.980Z,20.60
2018-04-10T16:55:55.636Z,9.87
2018-04-10T16:58:23.292Z,13.43
2018-04-10T17:00:50.964Z,21.27
2018-04-10T17:03:18.615Z,10.00
2018-04-10T17:05:46.234Z,21.77
2018-04-10T17:08:13.844Z,27.00
2018-04-10T17:10:41.418Z,28.57
2018-04-10T17:13:09.075Z,22.90
2018-04-10T17:15:36.737Z,17.60
2018-04-10T17:18:04.306Z,17.17
2018-04-10T17:20:32.065Z,43.00
2018-04-10T17:22:59.907Z,34.07
2018-04-10T17:25:27.628Z,30.23
2018-04-10T17:27:55.247Z,21.97
2018-04-10T17:30:23.119Z,45.93
2018-04-10T17:32:50.705Z,24.33
2018-04-10T17:35:18.314Z,32.70
2018-04-10T17:37:46.268Z,22.87
2018-04-10T17:40:13.864Z,36.93
2018-04-10T17:42:41.487Z,21.70
2018-04-10T17:45:09.103Z,32.10
2018-04-10T17:47:36.742Z,37.13
2018-04-10T17:50:04.416Z,18.10
2018-04-10T17:52:32.080Z,25.43
2018-04-10T17:54:59.739Z,42.03
2018-04-10T17:57:27.380Z,19.60
2018-04-10T17:59:55.054Z,26.63
2018-04-10T18:02:22.931Z,26.83
2018-04-10T18:04:50.575Z,25.67
2018-04-10T18:07:18.185Z,23.13
2018-04-10T18:09:45.770Z,21.97
2018-04-10T18:12:13.433Z,22.83
2018-04-10T18:14:41.043Z,14.80
2018-04-10T18:17:08.690Z,16.00
2018-04-10T18:19:36.354Z,48.67
2018-04-10T18:22:04.013Z,34.30
2018-04-10T18:24:31.682Z,23.90
2018-04-10T18:26:59.333Z,28.40
2018-04-10T18:29:26.999Z,38.57
2018-04-10T18:31:54.656Z,16.13
2018-04-10T18:34:22.320Z,21.80
2018-04-10T18:36:49.963Z,21.83
2018-04-10T18:39:17.537Z,14.13
2018-04-10T18:41:45.144Z,25.83
2018-04-10T18:44:12.991Z,17.37
2018-04-10T18:46:40.841Z,16.50
2018-04-10T18:49:08.564Z,10.43
2018-04-10T18:51:36.181Z,10.70
2018-04-10T18:54:03.756Z,12.43
2018-04-10T18:56:31.487Z,25.47
2018-04-10T18:58:59.084Z,22.37
2018-04-10T19:01:27.023Z,12.70
2018-04-10T19:03:54.685Z,13.20
2018-04-10T19:06:22.299Z,28.93
2018-04-10T19:08:49.878Z,21.87
2018-04-10T19:11:17.481Z,21.80
2018-04-10T19:13:45.122Z,24.40
2018-04-10T19:16:12.795Z,26.97
2018-04-10T19:18:40.737Z,23.90
2018-04-10T19:21:08.741Z,21.07
2018-04-10T19:23:36.574Z,16.67
2018-04-10T19:26:04.201Z,26.27
2018-04-10T19:28:31.986Z,14.17
2018-04-10T19:30:59.796Z,18.33
2018-04-10T19:33:27.404Z,19.60
2018-04-10T19:35:55.005Z,28.93
2018-04-10T19:38:22.783Z,9.17
2018-04-10T19:40:50.432Z,10.83
2018-04-10T19:43:18.096Z,10.80
2018-04-10T19:45:45.752Z,17.73
2018-04-10T19:48:13.369Z,12.83
2018-04-10T19:50:41.233Z,36.10
2018-04-10T19:53:08.950Z,15.63
2018-04-10T19:55:36.670Z,20.07
2018-04-10T19:58:04.338Z,11.30
2018-04-10T20:00:32.033Z,10.90
2018-04-10T20:02:59.668Z,17.37
2018-04-10T20:05:27.247Z,11.43
2018-04-10T20:07:55.176Z,17.70
2018-04-10T20:10:23.500Z,16.23
2018-04-10T20:12:51.065Z,11.13
2018-04-10T20:15:18.642Z,30.87
2018-04-10T20:17:46.377Z,50.90
2018-04-10T20:20:13.989Z,53.97
2018-04-10T20:22:41.633Z,43.60
2018-04-10T20:25:09.253Z,61.47
2018-04-10T20:27:36.892Z,34.57
2018-04-10T20:30:04.500Z,59.90
2018-04-10T20:32:32.126Z,44.57
2018-04-10T20:34:59.718Z,53.13
2018-04-10T20:37:27.339Z,30.33
2018-04-10T20:39:54.959Z,36.47
2018-04-10T20:42:22.596Z,35.47
2018-04-10T20:44:50.272Z,35.47
2018-04-10T20:47:17.912Z,18.27
2018-04-10T20:49:45.553Z,28.57
2018-04-10T20:52:13.123Z,33.90
2018-04-10T20:54:40.712Z,15.20
2018-04-10T20:57:08.336Z,34.27
2018-04-10T20:59:35.929Z,19.80
2018-04-10T21:02:03.521Z,32.17
2018-04-10T21:04:31.169Z,30.83
2018-04-10T21:06:58.772Z,28.73
2018-04-10T21:09:26.399Z,18.43
2018-04-10T21:11:54.157Z,15.70
2018-04-10T21:14:21.753Z,28.13
2018-04-10T21:16:49.380Z,8.63
2018-04-10T21:19:16.989Z,33.23
2018-04-10T21:21:44.556Z,9.27
2018-04-10T21:24:12.128Z,24.27
2018-04-10T21:26:39.740Z,23.07
2018-04-10T21:29:07.307Z,44.07
2018-04-10T21:31:34.884Z,29.80
2018-04-10T21:34:02.509Z,40.30
2018-04-10T21:36:30.143Z,22.60
2018-04-10T21:38:57.723Z,24.00
2018-04-10T21:41:25.329Z,16.60
2018-04-10T21:43:52.995Z,27.73
2018-04-10T21:46:20.552Z,21.03
2018-04-10T21:48:48.172Z,20.40
2018-04-10T21:51:15.760Z,28.63
2018-04-10T21:53:43.319Z,16.33
2018-04-10T21:56:10.947Z,21.30
2018-04-10T21:58:38.531Z,19.33
2018-04-10T22:01:06.100Z,28.10
2018-04-10T22:03:33.694Z,24.70
2018-04-10T22:06:01.268Z,20.47
2018-04-10T22:08:28.849Z,23.27
2018-04-10T22:10:56.453Z,24.17
2018-04-10T22:13:24.033Z,30.83
2018-04-10T22:15:51.664Z,42.10
2018-04-10T22:18:19.269Z,34.43
2018-04-10T22:20:46.856Z,30.90
2018-04-10T22:23:14.423Z,23.77
2018-04-10T22:25:42.050Z,27.50
2018-04-10T22:28:09.677Z,23.23
2018-04-10T22:30:37.288Z,35.37
2018-04-10T22:33:04.877Z,21.83
2018-04-10T22:35:32.439Z,14.47
2018-04-10T22:38:00.004Z,33.00
2018-04-10T22:40:27.653Z,44.20
2018-04-10T22:42:55.245Z,30.33
2018-04-10T22:45:22.864Z,19.30
2018-04-10T22:47:50.501Z,22.83
2018-04-10T22:50:18.108Z,63.03
2018-04-10T22:52:45.703Z,54.97
2018-04-10T22:55:13.381Z,35.67
2018-04-10T22:57:40.964Z,19.33
2018-04-10T23:00:08.630Z,22.00
2018-04-10T23:02:36.254Z,16.67
2018-04-10T23:05:03.847Z,14.10
2018-04-10T23:07:31.438Z,10.50
2018-04-10T23:09:59.251Z,17.20
2018-04-10T23:12:26.899Z,11.50
2018-04-10T23:14:54.530Z,47.00
2018-04-10T23:17:22.177Z,19.70
2018-04-10T23:19:49.777Z,25.17
2018-04-10T23:22:17.361Z,23.00
2018-04-10T23:24:45.017Z,14.80
2018-04-10T23:27:12.653Z,27.60
2018-04-10T23:29:40.234Z,9.13
2018-04-10T23:32:07.903Z,36.33
2018-04-10T23:34:35.491Z,36.40
2018-04-10T23:37:03.127Z,27.53
2018-04-10T23:39:30.749Z,36.17
2018-04-10T23:41:58.340Z,57.23
2018-04-10T23:44:25.985Z,29.67
2018-04-10T23:46:53.626Z,26.90
2018-04-10T23:49:21.221Z,31.57
2018-04-10T23:51:48.813Z,40.23
2018-04-10T23:54:16.437Z,31.37
2018-04-10T23:56:44.028Z,23.77
2018-04-10T23:59:11.618Z,43.63
